Time;durP1;ratioP1;P1;durP2;ratioP2;P2;SDS_P1;SDS_P2;PMS_P1;PMS_P2;Temp;Humidity;BMP_temperature;BMP_pressure;BME280_temperature;BME280_humidity;BME280_pressure;Samples;Min_cycle;Max_cycle;Signal;HPM_P1;HPM_P2
2023/09/25 00:01:47;;;;;;;;;;;;;;;19.92;100.00;95167.94;5114956;28;1138;-60
2023/09/25 00:04:13;;;;;;;;;;;;;;;19.98;100.00;95146.19;5115142;28;1047;-60
2023/09/25 00:06:39;;;;;;;;;;;;;;;19.86;100.00;95126.25;5115119;28;1043;-61
2023/09/25 00:09:05;;;;;;;;;;;;;;;19.84;100.00;95133.78;5114862;28;920;-61
2023/09/25 00:11:31;;;;;;;;;;;;;;;19.93;100.00;95140.59;5114826;28;2000;-60
2023/09/25 00:13:57;;;;;;;;;;;;;;;20.02;100.00;95155.56;5114902;28;964;-60
2023/09/25 00:16:23;;;;;;;;;;;;;;;19.74;100.00;95150.53;5114592;28;1189;-60
2023/09/25 00:18:50;;;;;;;;;;;;;;;19.32;100.00;95125.69;5113860;28;1059;-60
2023/09/25 00:21:17;;;;;;;;;;;;;;;19.24;100.00;95115.94;5114544;28;1106;-60
2023/09/25 00:23:43;;;;;;;;;;;;;;;19.40;100.00;95111.88;5114639;28;1031;-60
2023/09/25 00:26:09;;;;;;;;;;;;;;;19.38;100.00;95111.28;5114725;28;968;-60
2023/09/25 00:28:35;;;;;;;;;;;;;;;19.31;100.00;95107.75;5114518;28;977;-60
2023/09/25 00:31:01;;;;;;;;;;;;;;;19.45;100.00;95112.06;5114350;27;1985;-60
2023/09/25 00:33:27;;;;;;;;;;;;;;;19.55;100.00;95135.19;5114378;28;1134;-60
2023/09/25 00:35:56;;;;;;;;;;;;;;;19.59;100.00;95150.78;5114373;28;1108;-60
2023/09/25 00:38:22;;;;;;;;;;;;;;;19.47;100.00;95156.06;5114403;28;996;-60
2023/09/25 00:40:48;;;;;;;;;;;;;;;19.42;100.00;95131.47;5114576;28;968;-61
2023/09/25 00:43:14;;;;;;;;;;;;;;;19.36;100.00;95134.25;5114265;28;1020;-61
2023/09/25 00:45:47;;;;;;;;;;;;;;;19.38;100.00;95148.41;5113249;28;1051;-60
2023/09/25 00:48:31;;;;;;;;;;;;;;;19.45;100.00;95130.25;5114418;28;1039;-60
2023/09/25 00:51:00;;;;;;;;;;;;;;;19.40;100.00;95127.34;5114280;28;1906;-60
2023/09/25 00:53:28;;;;;;;;;;;;;;;19.41;100.00;95146.09;5114123;28;984;-60
2023/09/25 00:55:55;;;;;;;;;;;;;;;19.30;100.00;95150.31;5113915;28;1189;-60
2023/09/25 00:58:21;;;;;;;;;;;;;;;19.39;100.00;95131.06;5114150;28;1157;-60
2023/09/25 01:00:47;;;;;;;;;;;;;;;19.39;100.00;95129.22;5114313;28;983;-60
2023/09/25 01:03:13;;;;;;;;;;;;;;;19.40;100.00;95144.44;5114132;28;968;-60
2023/09/25 01:05:39;;;;;;;;;;;;;;;19.49;100.00;95145.00;5113886;28;1039;-61
2023/09/25 01:08:06;;;;;;;;;;;;;;;19.60;100.00;95148.94;5113923;28;1091;-60
2023/09/25 01:10:32;;;;;;;;;;;;;;;19.40;100.00;95141.72;5113838;28;1016;-61
2023/09/25 01:13:00;;;;;;;;;;;;;;;19.37;100.00;95149.44;5113788;28;1914;-60
2023/09/25 01:15:26;;;;;;;;;;;;;;;19.40;100.00;95154.44;5114088;28;1035;-60
2023/09/25 01:17:52;;;;;;;;;;;;;;;19.30;100.00;95161.16;5114103;28;999;-60
2023/09/25 01:20:19;;;;;;;;;;;;;;;19.26;100.00;95151.78;5113998;28;972;-61
2023/09/25 01:22:46;;;;;;;;;;;;;;;19.29;100.00;95143.25;5114077;28;995;-60
2023/09/25 01:25:12;;;;;;;;;;;;;;;19.24;100.00;95151.19;5113623;28;1332;-60
2023/09/25 01:27:39;;;;;;;;;;;;;;;19.19;100.00;95156.41;5113690;28;1055;-60
2023/09/25 01:30:08;;;;;;;;;;;;;;;19.29;100.00;95164.06;5113979;28;957;-60
2023/09/25 01:32:38;;;;;;;;;;;;;;;19.21;100.00;95159.72;5113783;28;1913;-60
2023/09/25 01:35:05;;;;;;;;;;;;;;;19.01;100.00;95167.94;5113688;28;1028;-60
2023/09/25 01:37:31;;;;;;;;;;;;;;;18.98;100.00;95160.22;5113806;28;1000;-60
2023/09/25 01:39:57;;;;;;;;;;;;;;;19.02;100.00;95155.22;5113544;28;1103;-59
2023/09/25 01:42:24;;;;;;;;;;;;;;;19.09;100.00;95156.88;5113810;28;972;-60
2023/09/25 01:44:50;;;;;;;;;;;;;;;19.23;100.00;95165.75;5113759;28;968;-60
2023/09/25 01:47:17;;;;;;;;;;;;;;;19.20;100.00;95171.63;5113739;28;1042;-60
2023/09/25 01:49:43;;;;;;;;;;;;;;;19.20;100.00;95171.63;5113609;28;1063;-60
2023/09/25 01:52:09;;;;;;;;;;;;;;;19.27;100.00;95177.00;5113680;28;1999;-60
2023/09/25 01:54:35;;;;;;;;;;;;;;;19.07;100.00;95177.94;5113459;28;1210;-60
2023/09/25 01:57:02;;;;;;;;;;;;;;;18.93;100.00;95176.28;5115656;28;1040;-60
2023/09/25 01:59:27;;;;;;;;;;;;;;;19.05;100.00;95176.50;5117461;27;1157;-60
2023/09/25 02:01:53;;;;;;;;;;;;;;;19.10;100.00;95182.94;5116370;28;972;-60
2023/09/25 02:04:19;;;;;;;;;;;;;;;19.23;100.00;95194.75;5106098;28;2580;-60
2023/09/25 02:06:45;;;;;;;;;;;;;;;19.25;100.00;95201.63;5097140;28;1048;-60
2023/09/25 02:09:11;;;;;;;;;;;;;;;19.11;100.00;95205.44;5096709;28;1107;-60
2023/09/25 02:11:38;;;;;;;;;;;;;;;19.16;100.00;95208.34;5097208;28;1999;-60
2023/09/25 02:14:05;;;;;;;;;;;;;;;19.23;100.00;95211.84;5096810;28;1028;-60
2023/09/25 02:16:31;;;;;;;;;;;;;;;19.33;100.00;95218.69;5096947;28;977;-60
2023/09/25 02:18:57;;;;;;;;;;;;;;;19.30;100.00;95220.78;5096962;28;1043;-60
2023/09/25 02:21:23;;;;;;;;;;;;;;;19.20;100.00;95206.00;5096649;28;1069;-60
2023/09/25 02:23:49;;;;;;;;;;;;;;;19.13;100.00;95208.75;5096836;28;972;-60
2023/09/25 02:26:15;;;;;;;;;;;;;;;19.11;100.00;95208.16;5096700;28;1048;-59
2023/09/25 02:28:41;;;;;;;;;;;;;;;19.17;100.00;95201.03;5096664;28;1130;-60
2023/09/25 02:31:07;;;;;;;;;;;;;;;19.26;100.00;95203.28;5096513;28;2046;-60
2023/09/25 02:33:33;;;;;;;;;;;;;;;19.13;100.00;95203.34;5096332;28;1104;-60
2023/09/25 02:36:03;;;;;;;;;;;;;;;18.99;100.00;95209.81;5096386;28;1086;-59
2023/09/25 02:38:29;;;;;;;;;;;;;;;18.84;100.00;95205.50;5096464;28;977;-60
2023/09/25 02:40:55;;;;;;;;;;;;;;;18.87;100.00;95207.75;5096241;28;1048;-60
2023/09/25 02:43:21;;;;;;;;;;;;;;;18.99;100.00;95207.13;5096277;28;976;-60
2023/09/25 02:45:47;;;;;;;;;;;;;;;19.00;100.00;95214.22;5096157;28;1108;-60
2023/09/25 02:48:13;;;;;;;;;;;;;;;19.08;100.00;95206.69;5095995;28;1088;-59
2023/09/25 02:50:39;;;;;;;;;;;;;;;19.09;100.00;95208.34;5096376;28;1044;-59
2023/09/25 02:53:05;;;;;;;;;;;;;;;19.08;100.00;95200.44;5096142;28;1898;-62
2023/09/25 02:55:31;;;;;;;;;;;;;;;19.02;100.00;95195.88;5095764;28;1410;-61
2023/09/25 02:57:57;;;;;;;;;;;;;;;18.92;100.00;95199.03;5097999;28;1220;-61
2023/09/25 03:00:23;;;;;;;;;;;;;;;18.97;100.00;95209.22;5116181;28;1020;-61
2023/09/25 03:02:49;;;;;;;;;;;;;;;19.12;100.00;95223.34;5116381;28;977;-61
2023/09/25 03:05:15;;;;;;;;;;;;;;;19.08;100.00;95232.94;5100375;28;2502;-61
2023/09/25 03:07:41;;;;;;;;;;;;;;;19.28;100.00;95230.19;5094687;28;1040;-61
2023/09/25 03:10:07;;;;;;;;;;;;;;;19.34;100.00;95239.34;5095967;28;968;-61
2023/09/25 03:12:33;;;;;;;;;;;;;;;19.29;100.00;95246.25;5095847;28;1910;-60
2023/09/25 03:14:59;;;;;;;;;;;;;;;19.29;100.00;95251.66;5095934;28;971;-60
2023/09/25 03:17:25;;;;;;;;;;;;;;;19.18;100.00;95249.63;5095691;28;1003;-60
2023/09/25 03:19:52;;;;;;;;;;;;;;;18.90;100.00;95242.56;5095518;28;959;-60
2023/09/25 03:22:18;;;;;;;;;;;;;;;18.97;100.00;95241.72;5095314;28;1035;-60
2023/09/25 03:24:44;;;;;;;;;;;;;;;19.12;100.00;95234.19;5095736;28;973;-60
2023/09/25 03:27:10;;;;;;;;;;;;;;;19.10;100.00;95233.56;5095567;28;1162;-61
2023/09/25 03:29:36;;;;;;;;;;;;;;;19.23;100.00;95236.22;5095495;28;1026;-61
2023/09/25 03:32:02;;;;;;;;;;;;;;;19.14;100.00;95242.09;5095445;28;1995;-62
2023/09/25 03:34:28;;;;;;;;;;;;;;;18.93;100.00;95246.72;5095215;28;1031;-62
2023/09/25 03:36:54;;;;;;;;;;;;;;;19.05;100.00;95238.81;5095133;28;956;-63
2023/09/25 03:39:20;;;;;;;;;;;;;;;19.27;100.00;95228.50;5095287;28;1118;-64
2023/09/25 03:41:46;;;;;;;;;;;;;;;19.34;100.00;95244.78;5095223;28;1016;-65
2023/09/25 03:44:12;;;;;;;;;;;;;;;19.35;100.00;95250.00;5094970;28;1099;-65
2023/09/25 03:46:38;;;;;;;;;;;;;;;19.23;100.00;95246.25;5094969;28;1099;-65
2023/09/25 03:49:06;;;;;;;;;;;;;;;19.13;100.00;95248.59;5110949;28;1131;-65
2023/09/25 03:51:32;;;;;;;;;;;;;;;19.06;100.00;95244.00;5094685;28;1914;-65
2023/09/25 03:53:59;;;;;;;;;;;;;;;19.04;100.00;95246.09;5095091;28;1011;-65
2023/09/25 03:56:25;;;;;;;;;;;;;;;19.03;100.00;95246.31;5094633;28;1219;-64
2023/09/25 03:58:51;;;;;;;;;;;;;;;18.99;100.00;95235.06;5104325;28;1220;-65
2023/09/25 04:01:17;;;;;;;;;;;;;;;18.96;100.00;95240.06;5114966;28;1072;-62
2023/09/25 04:03:43;;;;;;;;;;;;;;;18.88;100.00;95236.53;5115372;28;1191;-62
2023/09/25 04:06:09;;;;;;;;;;;;;;;18.97;100.00;95237.16;5115278;28;952;-62
2023/09/25 04:08:35;;;;;;;;;;;;;;;19.10;100.00;95242.53;5114994;28;944;-63
2023/09/25 04:11:03;;;;;;;;;;;;;;;18.89;100.00;95235.50;5115128;28;1909;-63
2023/09/25 04:13:29;;;;;;;;;;;;;;;18.84;100.00;95238.00;5114989;28;996;-63
2023/09/25 04:15:55;;;;;;;;;;;;;;;18.84;100.00;95231.75;5114827;28;1035;-63
2023/09/25 04:18:21;;;;;;;;;;;;;;;18.67;100.00;95242.16;5114749;28;972;-63
2023/09/25 04:20:47;;;;;;;;;;;;;;;18.62;100.00;95245.47;5114723;28;1028;-63
2023/09/25 04:23:13;;;;;;;;;;;;;;;18.62;100.00;95247.34;5111948;28;2540;-62
2023/09/25 04:25:39;;;;;;;;;;;;;;;18.66;100.00;95251.31;5094601;28;979;-63
2023/09/25 04:28:08;;;;;;;;;;;;;;;18.58;100.00;95262.38;5094458;28;1027;-62
2023/09/25 04:30:34;;;;;;;;;;;;;;;18.52;100.00;95267.56;5094395;28;1074;-62
2023/09/25 04:33:00;;;;;;;;;;;;;;;18.65;100.00;95260.50;5094267;28;1914;-60
2023/09/25 04:35:26;;;;;;;;;;;;;;;18.80;100.00;95265.66;5094018;28;1157;-61
2023/09/25 04:37:53;;;;;;;;;;;;;;;18.98;100.00;95265.91;5094374;28;1047;-59
2023/09/25 04:40:22;;;;;;;;;;;;;;;19.10;100.00;95274.22;5093894;28;1197;-59
2023/09/25 04:42:49;;;;;;;;;;;;;;;19.14;100.00;95264.59;5094157;28;976;-60
2023/09/25 04:45:18;;;;;;;;;;;;;;;19.25;100.00;95263.97;5093894;28;1107;-59
2023/09/25 04:47:44;;;;;;;;;;;;;;;19.22;100.00;95264.41;5094140;28;1003;-60
2023/09/25 04:50:11;;;;;;;;;;;;;;;19.18;100.00;95259.59;5093821;28;1028;-60
2023/09/25 04:52:40;;;;;;;;;;;;;;;19.29;100.00;95269.78;5093990;28;1918;-59
2023/09/25 04:55:07;;;;;;;;;;;;;;;19.48;100.00;95273.50;5093867;28;1076;-60
2023/09/25 04:57:33;;;;;;;;;;;;;;;19.62;100.00;95271.59;5094052;28;1038;-58
2023/09/25 05:00:21;;;;;;;;;;;;;;;19.72;100.00;95268.41;5112655;28;1213;-60
2023/09/25 05:02:47;;;;;;;;;;;;;;;19.78;100.00;95276.53;5113983;28;1622;-60
2023/09/25 05:05:13;;;;;;;;;;;;;;;19.84;100.00;95269.41;5113953;28;1106;-60
2023/09/25 05:07:43;;;;;;;;;;;;;;;19.94;98.72;95274.38;5114304;28;1047;-60
2023/09/25 05:10:10;;;;;;;;;;;;;;;20.00;98.65;95268.09;5113978;28;1032;-60
2023/09/25 05:12:37;;;;;;;;;;;;;;;19.95;99.12;95265.19;5114163;28;1989;-60
2023/09/25 05:15:03;;;;;;;;;;;;;;;19.83;100.00;95271.31;5113013;28;975;-59
2023/09/25 05:17:29;;;;;;;;;;;;;;;19.86;100.00;95275.47;5107763;28;2609;-59
2023/09/25 05:19:55;;;;;;;;;;;;;;;19.90;100.00;95282.13;5093522;28;1020;-60
2023/09/25 05:22:21;;;;;;;;;;;;;;;19.84;100.00;95278.41;5093666;28;1067;-60
2023/09/25 05:24:48;;;;;;;;;;;;;;;19.81;100.00;95286.97;5093944;28;1063;-60
2023/09/25 05:27:14;;;;;;;;;;;;;;;19.67;100.00;95291.59;5093430;28;975;-60
2023/09/25 05:29:43;;;;;;;;;;;;;;;19.66;100.00;95281.78;5093345;28;1036;-60
2023/09/25 05:32:09;;;;;;;;;;;;;;;19.76;100.00;95285.94;5096451;28;1913;-59
2023/09/25 05:34:35;;;;;;;;;;;;;;;19.86;100.00;95280.88;5097786;28;1034;-59
2023/09/25 05:37:01;;;;;;;;;;;;;;;19.93;100.00;95284.41;5097707;28;964;-58
2023/09/25 05:39:28;;;;;;;;;;;;;;;19.78;100.00;95281.13;5097670;28;1044;-59
2023/09/25 05:41:54;;;;;;;;;;;;;;;19.78;100.00;95289.28;5097793;28;1333;-60
2023/09/25 05:44:20;;;;;;;;;;;;;;;19.89;100.00;95294.84;5097310;28;1103;-59
2023/09/25 05:46:46;;;;;;;;;;;;;;;19.99;100.00;95299.81;5097303;28;1033;-60
2023/09/25 05:49:13;;;;;;;;;;;;;;;19.90;100.00;95295.72;5097556;28;1080;-60
2023/09/25 05:51:39;;;;;;;;;;;;;;;19.91;100.00;95293.81;5097527;28;1993;-55
2023/09/25 05:54:05;;;;;;;;;;;;;;;19.87;100.00;95293.41;5097502;28;996;-58
2023/09/25 05:56:31;;;;;;;;;;;;;;;19.93;100.00;95297.16;5096995;28;1318;-59
2023/09/25 05:58:57;;;;;;;;;;;;;;;19.99;100.00;95297.09;5107286;28;1157;-58
2023/09/25 06:01:23;;;;;;;;;;;;;;;20.11;100.00;95291.84;5117590;28;936;-57
2023/09/25 06:03:49;;;;;;;;;;;;;;;20.20;100.00;95295.13;5116239;28;1052;-59
2023/09/25 06:06:16;;;;;;;;;;;;;;;20.14;100.00;95302.25;5117010;28;1059;-59
2023/09/25 06:08:42;;;;;;;;;;;;;;;20.31;99.77;95297.13;5117274;28;1075;-59
2023/09/25 06:11:08;;;;;;;;;;;;;;;20.41;100.00;95293.94;5117332;28;1995;-59
2023/09/25 06:13:35;;;;;;;;;;;;;;;20.40;100.00;95298.56;5117165;28;1032;-59
2023/09/25 06:16:01;;;;;;;;;;;;;;;20.53;91.85;95299.53;5116178;28;968;-59
2023/09/25 06:18:29;;;;;;;;;;;;;;;20.57;91.99;95300.75;5116524;28;972;-59
2023/09/25 06:20:55;;;;;;;;;;;;;;;20.65;91.18;95303.22;5117311;27;1019;-59
2023/09/25 06:23:21;;;;;;;;;;;;;;;20.70;89.18;95308.81;5117421;28;945;-59
2023/09/25 06:25:47;;;;;;;;;;;;;;;20.77;88.94;95316.91;5117271;28;1012;-59
2023/09/25 06:28:14;;;;;;;;;;;;;;;20.87;89.64;95317.28;5117464;28;964;-59
2023/09/25 06:30:41;;;;;;;;;;;;;;;20.99;87.50;95322.81;5116798;28;1044;-59
2023/09/25 06:33:07;;;;;;;;;;;;;;;21.00;85.79;95316.31;5116781;28;1988;-59
2023/09/25 06:35:33;;;;;;;;;;;;;;;21.01;86.82;95335.13;5116711;28;1036;-58
2023/09/25 06:37:59;;;;;;;;;;;;;;;20.99;86.73;95331.78;5116960;28;1021;-59
2023/09/25 06:40:25;;;;;;;;;;;;;;;21.11;85.34;95342.75;5116606;28;1048;-58
2023/09/25 06:42:51;;;;;;;;;;;;;;;21.19;85.57;95336.22;5116637;28;972;-59
2023/09/25 06:45:18;;;;;;;;;;;;;;;21.25;82.87;95332.63;5116488;28;1004;-59
2023/09/25 06:47:47;;;;;;;;;;;;;;;21.34;82.04;95334.00;5116897;28;1055;-59
2023/09/25 06:50:13;;;;;;;;;;;;;;;21.44;81.91;95336.25;5115461;28;987;-59
2023/09/25 06:52:40;;;;;;;;;;;;;;;21.50;80.22;95348.94;5116731;28;1987;-59
2023/09/25 06:55:06;;;;;;;;;;;;;;;21.47;81.96;95360.25;5107572;28;2487;-59
2023/09/25 06:57:33;;;;;;;;;;;;;;;21.50;81.14;95354.38;5095906;28;1102;-59
2023/09/25 06:59:59;;;;;;;;;;;;;;;21.51;82.36;95356.03;5114972;28;1166;-59
2023/09/25 07:02:25;;;;;;;;;;;;;;;21.54;79.96;95358.31;5116232;27;1104;-58
2023/09/25 07:04:51;;;;;;;;;;;;;;;21.55;79.06;95361.84;5116416;28;1027;-59
2023/09/25 07:07:18;;;;;;;;;;;;;;;21.58;78.34;95378.56;5116253;28;1038;-59
2023/09/25 07:09:44;;;;;;;;;;;;;;;21.60;80.06;95373.72;5116431;28;1054;-59
2023/09/25 07:12:14;;;;;;;;;;;;;;;21.63;77.26;95377.91;5116337;28;2017;-58
2023/09/25 07:14:40;;;;;;;;;;;;;;;21.62;78.71;95385.22;5116048;28;948;-58
2023/09/25 07:17:06;;;;;;;;;;;;;;;21.69;77.44;95385.16;5115114;28;1023;-58
2023/09/25 07:19:32;;;;;;;;;;;;;;;21.74;78.47;95373.59;5116089;28;961;-59
2023/09/25 07:21:58;;;;;;;;;;;;;;;21.76;77.75;95382.34;5116152;28;1035;-59
2023/09/25 07:24:24;;;;;;;;;;;;;;;21.80;78.60;95383.59;5115771;28;1062;-59
2023/09/25 07:26:51;;;;;;;;;;;;;;;21.81;77.74;95380.63;5116065;28;972;-59
2023/09/25 07:29:19;;;;;;;;;;;;;;;21.91;77.00;95379.25;5114370;28;1068;-59
2023/09/25 07:31:45;;;;;;;;;;;;;;;21.92;77.09;95386.38;5115934;27;1906;-59
2023/09/25 07:34:11;;;;;;;;;;;;;;;21.91;76.36;95382.00;5115848;28;1011;-59
2023/09/25 07:36:37;;;;;;;;;;;;;;;21.93;78.34;95378.00;5115587;28;1032;-58
2023/09/25 07:39:04;;;;;;;;;;;;;;;21.95;77.16;95385.91;5113601;28;2497;-58
2023/09/25 07:41:30;;;;;;;;;;;;;;;21.93;76.39;95378.00;5115436;28;1027;-59
2023/09/25 07:43:56;;;;;;;;;;;;;;;21.88;78.63;95390.63;5115425;28;1038;-59
2023/09/25 07:46:25;;;;;;;;;;;;;;;21.90;76.50;95392.06;5115475;28;952;-59
2023/09/25 07:48:52;;;;;;;;;;;;;;;21.89;77.32;95393.09;5115681;28;1055;-59
2023/09/25 07:51:18;;;;;;;;;;;;;;;21.90;78.73;95392.06;5115312;28;2065;-59
2023/09/25 07:53:44;;;;;;;;;;;;;;;21.99;78.20;95384.44;5115042;28;968;-59
2023/09/25 07:56:10;;;;;;;;;;;;;;;22.07;77.86;95389.56;5115008;28;1336;-59
2023/09/25 07:58:39;;;;;;;;;;;;;;;22.07;76.87;95391.47;5115391;28;1161;-60
2023/09/25 08:01:08;;;;;;;;;;;;;;;22.10;77.64;95391.84;5115402;28;956;-60
2023/09/25 08:03:34;;;;;;;;;;;;;;;22.16;79.06;95385.47;5114957;28;936;-60
2023/09/25 08:06:05;;;;;;;;;;;;;;;22.22;78.39;95387.28;5115311;28;1052;-60
2023/09/25 08:08:32;;;;;;;;;;;;;;;22.20;79.18;95391.31;5113552;28;2469;-58
2023/09/25 08:10:58;;;;;;;;;;;;;;;22.23;77.49;95388.97;5114869;28;1000;-58
2023/09/25 08:13:24;;;;;;;;;;;;;;;22.38;77.15;95388.56;5115018;28;1909;-58
2023/09/25 08:15:51;;;;;;;;;;;;;;;22.48;79.14;95396.22;5114857;28;1155;-58
2023/09/25 08:18:17;;;;;;;;;;;;;;;22.50;76.86;95390.53;5114719;28;1088;-58
2023/09/25 08:20:42;;;;;;;;;;;;;;;22.50;76.74;95393.25;5115045;28;1060;-58
2023/09/25 08:23:09;;;;;;;;;;;;;;;22.60;76.32;95386.19;5114654;28;909;-59
2023/09/25 08:25:35;;;;;;;;;;;;;;;22.66;74.35;95384.44;5114783;28;1039;-58
2023/09/25 08:28:01;;;;;;;;;;;;;;;22.81;74.07;95378.56;5114939;28;1028;-59
2023/09/25 08:30:27;;;;;;;;;;;;;;;23.06;74.08;95380.31;5114696;27;1004;-58
2023/09/25 08:32:53;;;;;;;;;;;;;;;23.13;73.08;95362.78;5114756;28;1914;-58
2023/09/25 08:35:19;;;;;;;;;;;;;;;23.18;72.15;95375.72;5114689;28;1049;-58
2023/09/25 08:37:45;;;;;;;;;;;;;;;23.24;71.88;95373.94;5113360;28;1028;-57
2023/09/25 08:40:13;;;;;;;;;;;;;;;23.37;71.10;95371.00;5114575;28;1119;-58
2023/09/25 08:42:39;;;;;;;;;;;;;;;23.38;71.62;95372.66;5114692;28;1133;-58
2023/09/25 08:45:05;;;;;;;;;;;;;;;23.56;72.75;95372.56;5114394;28;1056;-58
2023/09/25 08:47:32;;;;;;;;;;;;;;;23.76;71.70;95365.91;5114551;28;1047;-58
2023/09/25 08:49:58;;;;;;;;;;;;;;;23.73;68.99;95380.88;5114445;28;972;-58
2023/09/25 08:52:24;;;;;;;;;;;;;;;23.65;71.38;95373.00;5114348;28;1997;-58
2023/09/25 08:54:51;;;;;;;;;;;;;;;23.77;71.14;95378.47;5113936;28;1210;-58
2023/09/25 08:57:18;;;;;;;;;;;;;;;23.84;69.32;95379.22;5114370;28;1028;-57
2023/09/25 08:59:45;;;;;;;;;;;;;;;23.85;69.71;95378.16;5114229;28;1209;-58
2023/09/25 09:02:12;;;;;;;;;;;;;;;23.76;68.79;95371.34;5114030;28;1016;-58
2023/09/25 09:04:38;;;;;;;;;;;;;;;23.87;68.61;95377.91;5114026;28;1040;-58
2023/09/25 09:07:05;;;;;;;;;;;;;;;24.07;68.74;95375.59;5113131;28;1178;-57
2023/09/25 09:09:32;;;;;;;;;;;;;;;24.54;66.94;95378.25;5113802;28;1052;-58
2023/09/25 09:11:58;;;;;;;;;;;;;;;24.81;67.81;95368.63;5113896;28;1996;-58
2023/09/25 09:14:34;;;;;;;;;;;;;;;24.73;68.30;95367.94;5112987;28;984;-57
2023/09/25 09:17:04;;;;;;;;;;;;;;;24.73;65.58;95370.69;5113898;28;1863;-57
2023/09/25 09:19:48;;;;;;;;;;;;;;;24.80;63.83;95369.72;5114002;28;1051;-57
2023/09/25 09:22:16;;;;;;;;;;;;;;;24.78;64.86;95360.94;5114108;28;1063;-57
2023/09/25 09:24:43;;;;;;;;;;;;;;;24.84;66.15;95365.41;5113786;28;1036;-57
2023/09/25 09:27:09;;;;;;;;;;;;;;;24.99;66.01;95367.59;5113712;28;1095;-57
2023/09/25 09:29:36;;;;;;;;;;;;;;;25.28;65.56;95365.66;5113874;28;980;-58
2023/09/25 09:32:02;;;;;;;;;;;;;;;25.44;63.71;95367.56;5113902;28;1934;-57
2023/09/25 09:34:28;;;;;;;;;;;;;;;25.24;61.96;95359.03;5113550;28;909;-58
2023/09/25 09:36:54;;;;;;;;;;;;;;;25.09;65.16;95356.81;5113894;28;1025;-58
2023/09/25 09:39:25;;;;;;;;;;;;;;;24.91;63.37;95366.09;5113756;28;1048;-57
2023/09/25 09:41:55;;;;;;;;;;;;;;;24.77;65.57;95362.00;5113918;28;1047;-58
2023/09/25 09:44:22;;;;;;;;;;;;;;;24.80;64.01;95370.53;5113499;28;1111;-57
2023/09/25 09:46:50;;;;;;;;;;;;;;;24.82;63.68;95364.84;5113673;28;1108;-57
2023/09/25 09:49:18;;;;;;;;;;;;;;;24.85;64.55;95356.13;5113420;28;1055;-58
2023/09/25 09:51:45;;;;;;;;;;;;;;;24.82;62.67;95357.47;5113467;28;2043;-58
2023/09/25 09:54:12;;;;;;;;;;;;;;;24.80;62.45;95353.31;5113391;28;2004;-57
2023/09/25 09:56:39;;;;;;;;;;;;;;;24.82;63.88;95354.72;5113355;28;1274;-57
2023/09/25 09:59:06;;;;;;;;;;;;;;;24.81;62.58;95349.50;5113562;28;1208;-57
2023/09/25 10:01:33;;;;;;;;;;;;;;;24.86;63.66;95344.94;5113439;28;996;-57
2023/09/25 10:04:01;;;;;;;;;;;;;;;24.92;62.51;95345.88;5113424;28;1112;-58
2023/09/25 10:06:30;;;;;;;;;;;;;;;25.04;62.86;95337.59;5113531;28;968;-58
2023/09/25 10:09:10;;;;;;;;;;;;;;;25.25;62.37;95342.38;5113384;28;1039;-57
2023/09/25 10:11:36;;;;;;;;;;;;;;;25.49;61.43;95351.22;5113601;28;1914;-57
2023/09/25 10:14:03;;;;;;;;;;;;;;;25.88;59.77;95345.75;5113390;28;1099;-58
2023/09/25 10:16:32;;;;;;;;;;;;;;;26.22;58.74;95336.66;5113144;28;1133;-57
2023/09/25 10:19:00;;;;;;;;;;;;;;;26.50;56.46;95330.09;5117238;28;1055;-58
2023/09/25 10:21:25;;;;;;;;;;;;;;;26.60;57.27;95321.22;5117073;28;1082;-57
2023/09/25 10:23:54;;;;;;;;;;;;;;;26.59;54.45;95331.34;5101802;28;2600;-58
2023/09/25 10:26:28;;;;;;;;;;;;;;;26.66;54.10;95329.22;5096543;28;1016;-58
2023/09/25 10:28:58;;;;;;;;;;;;;;;26.71;53.76;95330.38;5096531;28;1087;-58
2023/09/25 10:31:28;;;;;;;;;;;;;;;26.79;52.45;95332.66;5096692;28;1917;-58
2023/09/25 10:33:57;;;;;;;;;;;;;;;26.56;55.58;95325.50;5096844;28;975;-57
2023/09/25 10:36:34;;;;;;;;;;;;;;;26.60;54.10;95322.03;5096713;28;974;-58
2023/09/25 10:39:00;;;;;;;;;;;;;;;26.69;52.42;95344.31;5096768;28;1011;-58
2023/09/25 10:41:26;;;;;;;;;;;;;;;26.67;50.18;95327.31;5112960;28;2475;-58
2023/09/25 10:43:52;;;;;;;;;;;;;;;26.73;50.76;95329.03;5116952;28;976;-57
2023/09/25 10:46:18;;;;;;;;;;;;;;;26.46;48.64;95326.22;5116574;28;1033;-58
2023/09/25 10:48:46;;;;;;;;;;;;;;;26.35;47.86;95330.78;5116725;28;1035;-57
2023/09/25 10:51:14;;;;;;;;;;;;;;;26.12;49.25;95326.38;5116844;28;2040;-57
2023/09/25 10:53:40;;;;;;;;;;;;;;;26.28;49.58;95325.47;5116881;28;968;-57
2023/09/25 10:56:07;;;;;;;;;;;;;;;26.30;47.96;95326.06;5116321;28;1996;-58
2023/09/25 10:58:33;;;;;;;;;;;;;;;26.44;48.47;95323.75;5116656;28;1201;-58
2023/09/25 11:01:02;;;;;;;;;;;;;;;26.35;46.44;95336.28;5116574;28;1040;-57
2023/09/25 11:03:29;;;;;;;;;;;;;;;26.23;47.07;95336.38;5116581;28;965;-58
2023/09/25 11:05:55;;;;;;;;;;;;;;;26.26;45.66;95333.13;5116724;28;969;-58
2023/09/25 11:08:21;;;;;;;;;;;;;;;26.20;47.89;95325.94;5115235;28;980;-58
2023/09/25 11:10:47;;;;;;;;;;;;;;;26.15;47.70;95323.13;5116398;28;976;-57
2023/09/25 11:13:13;;;;;;;;;;;;;;;25.92;48.01;95312.44;5116290;28;1906;-57
2023/09/25 11:15:40;;;;;;;;;;;;;;;25.72;46.84;95319.25;5116312;28;1039;-58
2023/09/25 11:18:07;;;;;;;;;;;;;;;25.49;46.34;95323.84;5116041;28;1131;-57
2023/09/25 11:20:34;;;;;;;;;;;;;;;25.52;47.39;95317.88;5116222;28;1056;-57
2023/09/25 11:23:05;;;;;;;;;;;;;;;25.58;48.79;95309.75;5115980;28;1119;-57
2023/09/25 11:25:37;;;;;;;;;;;;;;;25.67;48.85;95303.59;5115811;28;1123;-58
2023/09/25 11:28:05;;;;;;;;;;;;;;;25.57;48.37;95310.81;5113676;27;2524;-58
2023/09/25 11:30:31;;;;;;;;;;;;;;;25.55;49.15;95304.75;5094593;28;1080;-58
2023/09/25 11:33:02;;;;;;;;;;;;;;;25.50;48.11;95311.81;5095427;28;1985;-58
2023/09/25 11:35:28;;;;;;;;;;;;;;;25.39;51.21;95306.44;5095215;28;1108;-58
2023/09/25 11:37:59;;;;;;;;;;;;;;;25.43;48.22;95313.06;5095496;28;1050;-58
2023/09/25 11:40:29;;;;;;;;;;;;;;;25.43;48.38;95322.09;5095087;28;1071;-57
2023/09/25 11:42:55;;;;;;;;;;;;;;;25.49;49.63;95309.31;5095158;28;1115;-57
2023/09/25 11:45:21;;;;;;;;;;;;;;;25.49;47.50;95312.06;5095261;28;1044;-58
2023/09/25 11:47:47;;;;;;;;;;;;;;;25.36;47.93;95304.22;5095052;28;1052;-57
2023/09/25 11:50:15;;;;;;;;;;;;;;;25.32;48.21;95304.69;5094994;28;1028;-58
2023/09/25 11:52:42;;;;;;;;;;;;;;;25.45;49.17;95300.78;5093595;28;1910;-58
2023/09/25 11:55:12;;;;;;;;;;;;;;;25.58;48.96;95294.13;5094739;28;1084;-58
2023/09/25 11:57:41;;;;;;;;;;;;;;;25.62;48.69;95297.19;5094871;28;1099;-58
2023/09/25 12:00:10;;;;;;;;;;;;;;;25.50;47.78;95298.13;5114721;28;1158;-57
2023/09/25 12:02:36;;;;;;;;;;;;;;;25.42;49.48;95289.50;5115194;28;1115;-58
2023/09/25 12:05:04;;;;;;;;;;;;;;;25.27;49.53;95292.84;5115309;28;1040;-58
2023/09/25 12:07:36;;;;;;;;;;;;;;;25.23;49.54;95291.69;5115177;28;1046;-57
2023/09/25 12:10:03;;;;;;;;;;;;;;;25.24;51.35;95279.69;5115425;28;1007;-57
2023/09/25 12:12:29;;;;;;;;;;;;;;;25.14;48.58;95296.75;5115082;28;1906;-58
2023/09/25 12:14:56;;;;;;;;;;;;;;;25.02;49.00;95287.78;5114949;28;1032;-58
2023/09/25 12:17:23;;;;;;;;;;;;;;;25.04;49.30;95286.47;5115085;28;1003;-58
2023/09/25 12:19:50;;;;;;;;;;;;;;;25.07;49.35;95279.66;5115031;28;984;-58
2023/09/25 12:22:16;;;;;;;;;;;;;;;25.28;49.99;95283.56;5115054;28;1032;-59
2023/09/25 12:24:42;;;;;;;;;;;;;;;25.28;49.08;95294.50;5112850;28;2546;-60
2023/09/25 12:27:08;;;;;;;;;;;;;;;25.21;50.39;95288.34;5114904;28;1039;-58
2023/09/25 12:29:34;;;;;;;;;;;;;;;25.08;49.57;95284.88;5114883;28;1024;-57
2023/09/25 12:32:01;;;;;;;;;;;;;;;25.07;49.59;95293.34;5113335;28;1984;-57
2023/09/25 12:34:27;;;;;;;;;;;;;;;25.13;49.27;95289.59;5114414;28;983;-58
2023/09/25 12:36:53;;;;;;;;;;;;;;;25.21;49.90;95280.13;5113577;28;1166;-58
2023/09/25 12:39:20;;;;;;;;;;;;;;;25.24;49.43;95275.03;5114616;28;1035;-58
2023/09/25 12:41:47;;;;;;;;;;;;;;;25.41;47.55;95285.13;5114328;28;1013;-57
2023/09/25 12:44:13;;;;;;;;;;;;;;;25.48;50.08;95289.34;5114609;28;973;-58
2023/09/25 12:46:39;;;;;;;;;;;;;;;25.50;48.56;95294.56;5114580;28;1032;-58
2023/09/25 12:49:05;;;;;;;;;;;;;;;25.50;47.79;95281.72;5114851;28;979;-58
2023/09/25 12:51:31;;;;;;;;;;;;;;;25.50;48.72;95287.19;5098712;28;2777;-58
2023/09/25 12:53:57;;;;;;;;;;;;;;;25.67;47.66;95280.84;5093867;28;1048;-57